sensor_id;sensor_type;location;lat;lon;timestamp;temperature;humidity
31695;DHT22;18289;51.330;4.946;2024-02-16T00:01:24;12.90;99.90
31695;DHT22;18289;51.330;4.946;2024-02-16T00:03:49;12.90;99.90
31695;DHT22;18289;51.330;4.946;2024-02-16T00:06:15;12.80;99.90
31695;DHT22;18289;51.330;4.946;2024-02-16T00:08:41;12.80;99.90
31695;DHT22;18289;51.330;4.946;2024-02-16T00:11:06;12.80;99.90
31695;DHT22;18289;51.330;4.946;2024-02-16T00:13:32;12.80;99.90
31695;DHT22;18289;51.330;4.946;2024-02-16T00:15:58;12.70;99.90
31695;DHT22;18289;51.330;4.946;2024-02-16T00:18:23;12.70;99.90
31695;DHT22;18289;51.330;4.946;2024-02-16T00:20:49;12.70;99.90
31695;DHT22;18289;51.330;4.946;2024-02-16T00:23:15;12.80;99.90
31695;DHT22;18289;51.330;4.946;2024-02-16T00:25:41;12.70;99.90
31695;DHT22;18289;51.330;4.946;2024-02-16T00:28:07;12.60;99.90
31695;DHT22;18289;51.330;4.946;2024-02-16T00:30:33;12.60;99.90
31695;DHT22;18289;51.330;4.946;2024-02-16T00:32:58;12.60;99.90
31695;DHT22;18289;51.330;4.946;2024-02-16T00:35:26;12.50;99.90
31695;DHT22;18289;51.330;4.946;2024-02-16T00:37:52;12.60;99.90
31695;DHT22;18289;51.330;4.946;2024-02-16T00:40:18;12.50;99.90
31695;DHT22;18289;51.330;4.946;2024-02-16T00:42:43;12.60;99.90
31695;DHT22;18289;51.330;4.946;2024-02-16T00:45:09;12.60;99.90
31695;DHT22;18289;51.330;4.946;2024-02-16T00:47:35;12.50;99.90
31695;DHT22;18289;51.330;4.946;2024-02-16T00:50:01;12.60;99.90
31695;DHT22;18289;51.330;4.946;2024-02-16T00:52:28;12.60;99.90
31695;DHT22;18289;51.330;4.946;2024-02-16T00:54:54;12.50;99.90
31695;DHT22;18289;51.330;4.946;2024-02-16T00:57:20;12.40;99.90
31695;DHT22;18289;51.330;4.946;2024-02-16T00:59:45;12.50;99.90
31695;DHT22;18289;51.330;4.946;2024-02-16T01:02:11;12.50;99.90
31695;DHT22;18289;51.330;4.946;2024-02-16T01:04:37;12.50;99.90
31695;DHT22;18289;51.330;4.946;2024-02-16T01:07:02;12.50;99.90
31695;DHT22;18289;51.330;4.946;2024-02-16T01:09:28;12.40;99.90
31695;DHT22;18289;51.330;4.946;2024-02-16T01:11:54;12.40;99.90
31695;DHT22;18289;51.330;4.946;2024-02-16T01:14:20;12.40;99.90
31695;DHT22;18289;51.330;4.946;2024-02-16T01:16:48;12.40;99.90
31695;DHT22;18289;51.330;4.946;2024-02-16T01:19:14;12.40;99.90
31695;DHT22;18289;51.330;4.946;2024-02-16T01:21:40;12.40;99.90
31695;DHT22;18289;51.330;4.946;2024-02-16T01:24:06;12.30;99.90
31695;DHT22;18289;51.330;4.946;2024-02-16T01:26:32;12.30;99.90
31695;DHT22;18289;51.330;4.946;2024-02-16T01:28:59;12.30;99.90
31695;DHT22;18289;51.330;4.946;2024-02-16T01:31:25;12.20;99.90
31695;DHT22;18289;51.330;4.946;2024-02-16T01:44:49;12.20;99.90
31695;DHT22;18289;51.330;4.946;2024-02-16T01:47:16;12.20;99.90
31695;DHT22;18289;51.330;4.946;2024-02-16T01:49:41;12.20;99.90
31695;DHT22;18289;51.330;4.946;2024-02-16T01:52:07;12.20;99.90
31695;DHT22;18289;51.330;4.946;2024-02-16T01:54:34;12.20;99.90
31695;DHT22;18289;51.330;4.946;2024-02-16T01:57:00;12.30;99.90
31695;DHT22;18289;51.330;4.946;2024-02-16T01:59:26;12.30;99.90
31695;DHT22;18289;51.330;4.946;2024-02-16T02:01:53;12.30;99.90
31695;DHT22;18289;51.330;4.946;2024-02-16T02:04:18;12.40;99.90
31695;DHT22;18289;51.330;4.946;2024-02-16T02:06:45;12.40;99.90
31695;DHT22;18289;51.330;4.946;2024-02-16T02:09:11;12.40;99.90
31695;DHT22;18289;51.330;4.946;2024-02-16T02:11:36;12.30;99.90
31695;DHT22;18289;51.330;4.946;2024-02-16T02:14:03;12.30;99.90
31695;DHT22;18289;51.330;4.946;2024-02-16T02:16:29;12.30;99.90
31695;DHT22;18289;51.330;4.946;2024-02-16T02:18:54;12.30;99.90
31695;DHT22;18289;51.330;4.946;2024-02-16T02:21:20;12.30;99.90
31695;DHT22;18289;51.330;4.946;2024-02-16T02:23:46;12.30;99.90
31695;DHT22;18289;51.330;4.946;2024-02-16T02:26:14;12.30;99.90
31695;DHT22;18289;51.330;4.946;2024-02-16T02:28:42;12.30;99.90
31695;DHT22;18289;51.330;4.946;2024-02-16T02:31:07;12.30;99.90
31695;DHT22;18289;51.330;4.946;2024-02-16T02:33:34;12.30;99.90
31695;DHT22;18289;51.330;4.946;2024-02-16T02:36:00;12.30;99.90
31695;DHT22;18289;51.330;4.946;2024-02-16T02:38:26;12.30;99.90
31695;DHT22;18289;51.330;4.946;2024-02-16T02:40:52;12.40;99.90
31695;DHT22;18289;51.330;4.946;2024-02-16T02:45:46;12.40;99.90
31695;DHT22;18289;51.330;4.946;2024-02-16T02:48:11;12.50;99.90
31695;DHT22;18289;51.330;4.946;2024-02-16T02:50:37;12.50;99.90
31695;DHT22;18289;51.330;4.946;2024-02-16T02:53:03;12.50;99.90
31695;DHT22;18289;51.330;4.946;2024-02-16T02:55:29;12.50;99.90
31695;DHT22;18289;51.330;4.946;2024-02-16T02:57:54;12.50;99.90
31695;DHT22;18289;51.330;4.946;2024-02-16T03:00:20;12.50;99.90
31695;DHT22;18289;51.330;4.946;2024-02-16T03:02:46;12.50;99.90
31695;DHT22;18289;51.330;4.946;2024-02-16T03:05:12;12.50;99.90
31695;DHT22;18289;51.330;4.946;2024-02-16T03:07:38;12.50;99.90
31695;DHT22;18289;51.330;4.946;2024-02-16T03:10:04;12.60;99.90
31695;DHT22;18289;51.330;4.946;2024-02-16T03:12:31;12.60;99.90
31695;DHT22;18289;51.330;4.946;2024-02-16T03:14:57;12.60;99.90
31695;DHT22;18289;51.330;4.946;2024-02-16T03:17:23;12.60;99.90
31695;DHT22;18289;51.330;4.946;2024-02-16T03:19:48;12.50;99.90
31695;DHT22;18289;51.330;4.946;2024-02-16T03:22:14;12.60;99.90
31695;DHT22;18289;51.330;4.946;2024-02-16T03:24:41;12.50;99.90
31695;DHT22;18289;51.330;4.946;2024-02-16T03:27:06;12.40;99.90
31695;DHT22;18289;51.330;4.946;2024-02-16T03:29:32;12.40;99.90
31695;DHT22;18289;51.330;4.946;2024-02-16T03:31:58;12.30;99.90
31695;DHT22;18289;51.330;4.946;2024-02-16T03:34:24;12.50;99.90
31695;DHT22;18289;51.330;4.946;2024-02-16T03:36:49;12.60;99.90
31695;DHT22;18289;51.330;4.946;2024-02-16T03:39:15;12.50;99.90
31695;DHT22;18289;51.330;4.946;2024-02-16T03:41:45;12.60;99.90
31695;DHT22;18289;51.330;4.946;2024-02-16T03:44:14;12.60;99.90
31695;DHT22;18289;51.330;4.946;2024-02-16T03:46:42;12.60;99.90
31695;DHT22;18289;51.330;4.946;2024-02-16T03:49:07;12.50;99.90
31695;DHT22;18289;51.330;4.946;2024-02-16T03:51:33;12.50;99.90
31695;DHT22;18289;51.330;4.946;2024-02-16T03:53:59;12.60;99.90
31695;DHT22;18289;51.330;4.946;2024-02-16T03:56:24;12.50;99.90
31695;DHT22;18289;51.330;4.946;2024-02-16T03:58:50;12.40;99.90
31695;DHT22;18289;51.330;4.946;2024-02-16T04:01:16;12.50;99.90
31695;DHT22;18289;51.330;4.946;2024-02-16T04:03:41;12.40;99.90
31695;DHT22;18289;51.330;4.946;2024-02-16T04:06:08;12.40;99.90
31695;DHT22;18289;51.330;4.946;2024-02-16T04:08:33;12.50;99.90
31695;DHT22;18289;51.330;4.946;2024-02-16T04:10:59;12.50;99.90
31695;DHT22;18289;51.330;4.946;2024-02-16T04:13:25;12.50;99.90
31695;DHT22;18289;51.330;4.946;2024-02-16T04:15:50;12.50;99.90
31695;DHT22;18289;51.330;4.946;2024-02-16T04:18:16;12.60;99.90
31695;DHT22;18289;51.330;4.946;2024-02-16T04:20:42;12.50;99.90
31695;DHT22;18289;51.330;4.946;2024-02-16T04:23:07;12.50;99.90
31695;DHT22;18289;51.330;4.946;2024-02-16T04:25:33;12.50;99.90
31695;DHT22;18289;51.330;4.946;2024-02-16T04:27:59;12.50;99.90
31695;DHT22;18289;51.330;4.946;2024-02-16T04:30:25;12.50;99.90
31695;DHT22;18289;51.330;4.946;2024-02-16T04:32:50;12.50;99.90
31695;DHT22;18289;51.330;4.946;2024-02-16T04:35:16;12.50;99.90
31695;DHT22;18289;51.330;4.946;2024-02-16T04:37:42;12.50;99.90
31695;DHT22;18289;51.330;4.946;2024-02-16T04:40:08;12.50;99.90
31695;DHT22;18289;51.330;4.946;2024-02-16T04:42:34;12.60;99.90
31695;DHT22;18289;51.330;4.946;2024-02-16T04:45:00;12.60;99.90
31695;DHT22;18289;51.330;4.946;2024-02-16T04:47:27;12.70;99.90
31695;DHT22;18289;51.330;4.946;2024-02-16T04:49:52;12.80;99.90
31695;DHT22;18289;51.330;4.946;2024-02-16T04:52:18;12.70;99.90
31695;DHT22;18289;51.330;4.946;2024-02-16T04:54:44;12.70;99.90
31695;DHT22;18289;51.330;4.946;2024-02-16T04:57:10;12.80;99.90
31695;DHT22;18289;51.330;4.946;2024-02-16T04:59:36;12.70;99.90
31695;DHT22;18289;51.330;4.946;2024-02-16T05:02:01;12.70;99.90
31695;DHT22;18289;51.330;4.946;2024-02-16T05:04:29;12.70;99.90
31695;DHT22;18289;51.330;4.946;2024-02-16T05:06:55;12.80;99.90
31695;DHT22;18289;51.330;4.946;2024-02-16T05:09:23;12.80;99.90
31695;DHT22;18289;51.330;4.946;2024-02-16T05:11:50;12.90;99.90
31695;DHT22;18289;51.330;4.946;2024-02-16T05:14:16;12.80;99.90
31695;DHT22;18289;51.330;4.946;2024-02-16T05:16:46;12.80;99.90
31695;DHT22;18289;51.330;4.946;2024-02-16T05:19:12;12.80;99.90
31695;DHT22;18289;51.330;4.946;2024-02-16T05:21:38;12.80;99.90
31695;DHT22;18289;51.330;4.946;2024-02-16T05:24:04;12.70;99.90
31695;DHT22;18289;51.330;4.946;2024-02-16T05:26:30;12.70;99.90
31695;DHT22;18289;51.330;4.946;2024-02-16T05:28:56;12.70;99.90
31695;DHT22;18289;51.330;4.946;2024-02-16T05:31:22;12.70;99.90
31695;DHT22;18289;51.330;4.946;2024-02-16T05:33:48;12.70;99.90
31695;DHT22;18289;51.330;4.946;2024-02-16T05:38:46;12.60;99.90
31695;DHT22;18289;51.330;4.946;2024-02-16T05:41:12;12.70;99.90
31695;DHT22;18289;51.330;4.946;2024-02-16T05:43:38;12.60;99.90
31695;DHT22;18289;51.330;4.946;2024-02-16T05:46:04;12.60;99.90
31695;DHT22;18289;51.330;4.946;2024-02-16T05:48:33;12.60;99.90
31695;DHT22;18289;51.330;4.946;2024-02-16T05:51:03;12.60;99.90
31695;DHT22;18289;51.330;4.946;2024-02-16T05:53:31;12.60;99.90
31695;DHT22;18289;51.330;4.946;2024-02-16T05:55:56;12.60;99.90
31695;DHT22;18289;51.330;4.946;2024-02-16T05:58:25;12.60;99.90
31695;DHT22;18289;51.330;4.946;2024-02-16T06:00:51;12.60;99.90
31695;DHT22;18289;51.330;4.946;2024-02-16T06:03:17;12.60;99.90
31695;DHT22;18289;51.330;4.946;2024-02-16T06:05:43;12.60;99.90
31695;DHT22;18289;51.330;4.946;2024-02-16T06:08:13;12.60;99.90
31695;DHT22;18289;51.330;4.946;2024-02-16T06:10:39;12.60;99.90
31695;DHT22;18289;51.330;4.946;2024-02-16T06:13:05;12.60;99.90
31695;DHT22;18289;51.330;4.946;2024-02-16T06:15:31;12.60;99.90
31695;DHT22;18289;51.330;4.946;2024-02-16T06:18:00;12.60;99.90
31695;DHT22;18289;51.330;4.946;2024-02-16T06:20:26;12.60;99.90
31695;DHT22;18289;51.330;4.946;2024-02-16T06:22:55;12.60;99.90
31695;DHT22;18289;51.330;4.946;2024-02-16T06:25:20;12.70;99.90
31695;DHT22;18289;51.330;4.946;2024-02-16T06:27:48;12.60;99.90
31695;DHT22;18289;51.330;4.946;2024-02-16T06:30:15;12.70;99.90
31695;DHT22;18289;51.330;4.946;2024-02-16T06:32:41;12.60;99.90
31695;DHT22;18289;51.330;4.946;2024-02-16T06:35:07;12.80;99.90
31695;DHT22;18289;51.330;4.946;2024-02-16T06:37:33;12.70;99.90
31695;DHT22;18289;51.330;4.946;2024-02-16T06:39:59;12.70;99.90
31695;DHT22;18289;51.330;4.946;2024-02-16T06:42:25;12.80;99.90
31695;DHT22;18289;51.330;4.946;2024-02-16T06:44:50;12.80;99.90
31695;DHT22;18289;51.330;4.946;2024-02-16T06:47:16;12.80;99.90
31695;DHT22;18289;51.330;4.946;2024-02-16T06:49:42;12.80;99.90
31695;DHT22;18289;51.330;4.946;2024-02-16T06:52:08;12.90;99.90
31695;DHT22;18289;51.330;4.946;2024-02-16T06:54:35;12.90;99.90
31695;DHT22;18289;51.330;4.946;2024-02-16T06:57:01;12.90;99.90
31695;DHT22;18289;51.330;4.946;2024-02-16T06:59:27;13.00;99.90
31695;DHT22;18289;51.330;4.946;2024-02-16T07:01:52;12.90;99.90
31695;DHT22;18289;51.330;4.946;2024-02-16T07:04:18;13.00;99.90
31695;DHT22;18289;51.330;4.946;2024-02-16T07:06:44;13.10;99.90
31695;DHT22;18289;51.330;4.946;2024-02-16T07:09:10;13.10;99.90
31695;DHT22;18289;51.330;4.946;2024-02-16T07:11:35;13.20;99.90
31695;DHT22;18289;51.330;4.946;2024-02-16T07:14:01;13.20;99.90
31695;DHT22;18289;51.330;4.946;2024-02-16T07:16:30;13.30;99.90
31695;DHT22;18289;51.330;4.946;2024-02-16T07:18:57;13.30;99.90
31695;DHT22;18289;51.330;4.946;2024-02-16T07:21:23;13.30;99.90
31695;DHT22;18289;51.330;4.946;2024-02-16T07:23:52;13.40;99.90
31695;DHT22;18289;51.330;4.946;2024-02-16T07:26:18;13.40;99.90
31695;DHT22;18289;51.330;4.946;2024-02-16T07:28:43;13.50;99.90
31695;DHT22;18289;51.330;4.946;2024-02-16T07:31:09;13.50;99.90
31695;DHT22;18289;51.330;4.946;2024-02-16T07:33:36;13.60;99.90
31695;DHT22;18289;51.330;4.946;2024-02-16T07:36:02;13.50;99.90
31695;DHT22;18289;51.330;4.946;2024-02-16T07:38:28;13.50;99.90
31695;DHT22;18289;51.330;4.946;2024-02-16T07:40:54;13.50;99.90
31695;DHT22;18289;51.330;4.946;2024-02-16T07:43:20;13.40;99.90
31695;DHT22;18289;51.330;4.946;2024-02-16T07:45:47;13.30;99.90
31695;DHT22;18289;51.330;4.946;2024-02-16T07:48:13;13.20;99.90
31695;DHT22;18289;51.330;4.946;2024-02-16T07:50:39;13.20;99.90
31695;DHT22;18289;51.330;4.946;2024-02-16T07:53:04;13.10;99.90
31695;DHT22;18289;51.330;4.946;2024-02-16T07:55:30;13.00;99.90
31695;DHT22;18289;51.330;4.946;2024-02-16T07:57:56;13.10;99.90
31695;DHT22;18289;51.330;4.946;2024-02-16T08:00:22;13.10;99.90
31695;DHT22;18289;51.330;4.946;2024-02-16T08:02:48;13.00;99.90
31695;DHT22;18289;51.330;4.946;2024-02-16T08:05:14;13.00;99.90
31695;DHT22;18289;51.330;4.946;2024-02-16T08:07:40;13.00;99.90
31695;DHT22;18289;51.330;4.946;2024-02-16T08:10:08;13.00;99.90
31695;DHT22;18289;51.330;4.946;2024-02-16T08:12:34;13.10;99.90
31695;DHT22;18289;51.330;4.946;2024-02-16T08:15:05;13.00;99.90
31695;DHT22;18289;51.330;4.946;2024-02-16T08:17:33;13.10;99.90
31695;DHT22;18289;51.330;4.946;2024-02-16T08:19:59;13.10;99.90
31695;DHT22;18289;51.330;4.946;2024-02-16T08:22:28;13.20;99.90
31695;DHT22;18289;51.330;4.946;2024-02-16T08:27:25;13.20;99.90
31695;DHT22;18289;51.330;4.946;2024-02-16T08:29:50;13.20;99.90
31695;DHT22;18289;51.330;4.946;2024-02-16T08:32:19;13.20;99.90
31695;DHT22;18289;51.330;4.946;2024-02-16T08:34:46;13.30;99.90
31695;DHT22;18289;51.330;4.946;2024-02-16T08:37:13;13.30;99.90
31695;DHT22;18289;51.330;4.946;2024-02-16T08:39:39;13.40;99.90
31695;DHT22;18289;51.330;4.946;2024-02-16T08:42:07;13.50;99.90
31695;DHT22;18289;51.330;4.946;2024-02-16T08:44:37;13.50;99.90
31695;DHT22;18289;51.330;4.946;2024-02-16T08:47:07;13.60;99.90
31695;DHT22;18289;51.330;4.946;2024-02-16T08:49:33;13.90;99.90
31695;DHT22;18289;51.330;4.946;2024-02-16T08:54:33;14.00;99.90
31695;DHT22;18289;51.330;4.946;2024-02-16T08:56:58;14.20;99.90
31695;DHT22;18289;51.330;4.946;2024-02-16T08:59:34;14.20;99.90
31695;DHT22;18289;51.330;4.946;2024-02-16T09:02:00;14.40;99.90
31695;DHT22;18289;51.330;4.946;2024-02-16T09:04:25;14.50;99.90
31695;DHT22;18289;51.330;4.946;2024-02-16T09:06:54;14.50;99.90
31695;DHT22;18289;51.330;4.946;2024-02-16T09:09:22;14.50;99.90
31695;DHT22;18289;51.330;4.946;2024-02-16T09:11:48;14.40;99.90
31695;DHT22;18289;51.330;4.946;2024-02-16T09:14:19;14.30;99.90
31695;DHT22;18289;51.330;4.946;2024-02-16T09:16:48;14.50;99.90
31695;DHT22;18289;51.330;4.946;2024-02-16T09:19:14;14.50;99.90
31695;DHT22;18289;51.330;4.946;2024-02-16T09:21:39;14.50;99.90
31695;DHT22;18289;51.330;4.946;2024-02-16T09:24:05;14.50;99.90
31695;DHT22;18289;51.330;4.946;2024-02-16T09:26:36;14.60;99.90
31695;DHT22;18289;51.330;4.946;2024-02-16T09:29:02;14.70;99.90
31695;DHT22;18289;51.330;4.946;2024-02-16T09:31:31;14.70;99.90
31695;DHT22;18289;51.330;4.946;2024-02-16T09:33:57;14.80;99.90
31695;DHT22;18289;51.330;4.946;2024-02-16T09:36:26;14.90;99.90
31695;DHT22;18289;51.330;4.946;2024-02-16T09:38:51;14.80;99.90
31695;DHT22;18289;51.330;4.946;2024-02-16T09:41:18;14.70;99.90
31695;DHT22;18289;51.330;4.946;2024-02-16T09:43:44;14.70;99.90
31695;DHT22;18289;51.330;4.946;2024-02-16T09:46:12;14.60;99.90
31695;DHT22;18289;51.330;4.946;2024-02-16T09:48:40;14.50;99.90
31695;DHT22;18289;51.330;4.946;2024-02-16T09:51:10;14.40;99.90
31695;DHT22;18289;51.330;4.946;2024-02-16T09:53:36;14.40;99.90
31695;DHT22;18289;51.330;4.946;2024-02-16T09:56:05;14.40;99.90
31695;DHT22;18289;51.330;4.946;2024-02-16T09:58:35;14.40;99.90
31695;DHT22;18289;51.330;4.946;2024-02-16T10:01:01;14.40;99.90
31695;DHT22;18289;51.330;4.946;2024-02-16T10:03:37;14.40;99.90
31695;DHT22;18289;51.330;4.946;2024-02-16T10:06:10;14.30;99.90
31695;DHT22;18289;51.330;4.946;2024-02-16T10:08:56;14.30;99.90
31695;DHT22;18289;51.330;4.946;2024-02-16T10:11:31;14.40;99.90
31695;DHT22;18289;51.330;4.946;2024-02-16T10:14:02;14.40;99.90
31695;DHT22;18289;51.330;4.946;2024-02-16T10:16:29;14.40;99.90
31695;DHT22;18289;51.330;4.946;2024-02-16T10:19:05;14.50;99.90
31695;DHT22;18289;51.330;4.946;2024-02-16T10:21:32;14.50;99.90
31695;DHT22;18289;51.330;4.946;2024-02-16T10:24:13;14.40;99.90
31695;DHT22;18289;51.330;4.946;2024-02-16T10:26:44;14.30;99.90
31695;DHT22;18289;51.330;4.946;2024-02-16T10:29:10;14.30;99.90
31695;DHT22;18289;51.330;4.946;2024-02-16T10:31:39;14.30;99.90
31695;DHT22;18289;51.330;4.946;2024-02-16T10:34:08;14.30;99.90
31695;DHT22;18289;51.330;4.946;2024-02-16T10:36:40;14.20;99.90
31695;DHT22;18289;51.330;4.946;2024-02-16T10:39:07;14.20;99.90
31695;DHT22;18289;51.330;4.946;2024-02-16T10:41:41;14.20;99.90
31695;DHT22;18289;51.330;4.946;2024-02-16T10:44:07;14.30;99.90
31695;DHT22;18289;51.330;4.946;2024-02-16T10:46:36;14.20;99.90
31695;DHT22;18289;51.330;4.946;2024-02-16T10:49:03;14.30;99.90
31695;DHT22;18289;51.330;4.946;2024-02-16T10:51:55;14.30;99.90
31695;DHT22;18289;51.330;4.946;2024-02-16T10:54:32;14.30;99.90
31695;DHT22;18289;51.330;4.946;2024-02-16T10:57:01;14.20;99.90
31695;DHT22;18289;51.330;4.946;2024-02-16T10:59:26;14.20;99.90
31695;DHT22;18289;51.330;4.946;2024-02-16T11:02:02;14.00;99.90
31695;DHT22;18289;51.330;4.946;2024-02-16T11:04:37;14.00;99.90
31695;DHT22;18289;51.330;4.946;2024-02-16T11:07:11;13.80;99.90
31695;DHT22;18289;51.330;4.946;2024-02-16T11:09:39;13.80;99.90
31695;DHT22;18289;51.330;4.946;2024-02-16T11:12:06;13.70;99.90
31695;DHT22;18289;51.330;4.946;2024-02-16T11:14:49;13.60;99.90
31695;DHT22;18289;51.330;4.946;2024-02-16T11:17:22;13.60;99.90
31695;DHT22;18289;51.330;4.946;2024-02-16T11:19:48;13.70;99.90
31695;DHT22;18289;51.330;4.946;2024-02-16T11:22:19;13.50;99.90
31695;DHT22;18289;51.330;4.946;2024-02-16T11:24:49;13.40;99.90
31695;DHT22;18289;51.330;4.946;2024-02-16T11:27:16;13.50;99.90
31695;DHT22;18289;51.330;4.946;2024-02-16T11:29:44;13.50;99.90
31695;DHT22;18289;51.330;4.946;2024-02-16T11:32:10;13.40;99.90
31695;DHT22;18289;51.330;4.946;2024-02-16T11:34:37;13.40;99.90
31695;DHT22;18289;51.330;4.946;2024-02-16T11:37:06;13.30;99.90
31695;DHT22;18289;51.330;4.946;2024-02-16T11:39:32;13.30;99.90
31695;DHT22;18289;51.330;4.946;2024-02-16T11:42:04;13.30;99.90
31695;DHT22;18289;51.330;4.946;2024-02-16T11:44:31;13.30;99.90
31695;DHT22;18289;51.330;4.946;2024-02-16T11:46:58;13.30;99.90
31695;DHT22;18289;51.330;4.946;2024-02-16T11:49:24;13.20;99.90
31695;DHT22;18289;51.330;4.946;2024-02-16T11:51:50;13.10;99.90
31695;DHT22;18289;51.330;4.946;2024-02-16T11:54:16;13.10;99.90
31695;DHT22;18289;51.330;4.946;2024-02-16T11:56:49;13.10;99.90
31695;DHT22;18289;51.330;4.946;2024-02-16T11:59:21;13.10;99.90
31695;DHT22;18289;51.330;4.946;2024-02-16T12:01:54;13.20;99.90
31695;DHT22;18289;51.330;4.946;2024-02-16T12:04:27;13.10;99.90
31695;DHT22;18289;51.330;4.946;2024-02-16T12:07:01;13.00;99.90
31695;DHT22;18289;51.330;4.946;2024-02-16T12:09:27;13.10;99.90
31695;DHT22;18289;51.330;4.946;2024-02-16T12:11:54;13.10;99.90
31695;DHT22;18289;51.330;4.946;2024-02-16T12:14:22;13.00;99.90
31695;DHT22;18289;51.330;4.946;2024-02-16T12:16:50;13.00;99.90
31695;DHT22;18289;51.330;4.946;2024-02-16T12:19:18;13.00;99.90
31695;DHT22;18289;51.330;4.946;2024-02-16T12:21:44;13.00;99.90
31695;DHT22;18289;51.330;4.946;2024-02-16T12:24:10;13.00;99.90
31695;DHT22;18289;51.330;4.946;2024-02-16T12:26:36;13.10;99.90
31695;DHT22;18289;51.330;4.946;2024-02-16T12:29:02;13.00;99.90
31695;DHT22;18289;51.330;4.946;2024-02-16T12:31:29;13.10;99.90
31695;DHT22;18289;51.330;4.946;2024-02-16T12:33:55;13.00;99.90
31695;DHT22;18289;51.330;4.946;2024-02-16T12:36:21;13.10;99.90
31695;DHT22;18289;51.330;4.946;2024-02-16T12:38:49;13.10;99.90
31695;DHT22;18289;51.330;4.946;2024-02-16T12:41:15;13.00;99.90
31695;DHT22;18289;51.330;4.946;2024-02-16T12:43:41;13.00;99.90
31695;DHT22;18289;51.330;4.946;2024-02-16T12:46:06;13.10;99.90
31695;DHT22;18289;51.330;4.946;2024-02-16T12:48:32;13.10;99.90
31695;DHT22;18289;51.330;4.946;2024-02-16T12:50:58;12.90;99.90
31695;DHT22;18289;51.330;4.946;2024-02-16T12:53:24;13.00;99.90
31695;DHT22;18289;51.330;4.946;2024-02-16T12:55:55;12.90;99.90
31695;DHT22;18289;51.330;4.946;2024-02-16T12:58:21;13.00;99.90
31695;DHT22;18289;51.330;4.946;2024-02-16T13:00:47;12.90;99.90
31695;DHT22;18289;51.330;4.946;2024-02-16T13:03:12;12.80;99.90
31695;DHT22;18289;51.330;4.946;2024-02-16T13:05:38;12.80;99.90
31695;DHT22;18289;51.330;4.946;2024-02-16T13:08:04;12.70;99.90
31695;DHT22;18289;51.330;4.946;2024-02-16T13:10:30;12.70;99.90
31695;DHT22;18289;51.330;4.946;2024-02-16T13:12:56;12.70;99.90
31695;DHT22;18289;51.330;4.946;2024-02-16T13:15:21;12.60;99.90
31695;DHT22;18289;51.330;4.946;2024-02-16T13:17:47;12.70;99.90
31695;DHT22;18289;51.330;4.946;2024-02-16T13:20:13;12.60;99.90
31695;DHT22;18289;51.330;4.946;2024-02-16T13:22:39;12.60;99.90
31695;DHT22;18289;51.330;4.946;2024-02-16T13:25:05;12.70;99.90
31695;DHT22;18289;51.330;4.946;2024-02-16T13:27:32;12.80;99.90
31695;DHT22;18289;51.330;4.946;2024-02-16T13:29:58;12.90;99.90
31695;DHT22;18289;51.330;4.946;2024-02-16T13:32:24;12.90;99.90
31695;DHT22;18289;51.330;4.946;2024-02-16T13:34:50;13.00;99.90
31695;DHT22;18289;51.330;4.946;2024-02-16T13:39:44;12.90;99.90
31695;DHT22;18289;51.330;4.946;2024-02-16T13:42:10;12.90;99.90
31695;DHT22;18289;51.330;4.946;2024-02-16T13:44:36;13.20;99.90
31695;DHT22;18289;51.330;4.946;2024-02-16T13:47:02;13.10;99.90
31695;DHT22;18289;51.330;4.946;2024-02-16T13:49:28;13.20;99.90
31695;DHT22;18289;51.330;4.946;2024-02-16T13:51:54;13.30;99.90
31695;DHT22;18289;51.330;4.946;2024-02-16T13:54:24;13.30;99.90
31695;DHT22;18289;51.330;4.946;2024-02-16T13:56:50;13.30;99.90
31695;DHT22;18289;51.330;4.946;2024-02-16T13:59:16;13.40;99.90
31695;DHT22;18289;51.330;4.946;2024-02-16T14:01:41;13.40;99.90
31695;DHT22;18289;51.330;4.946;2024-02-16T14:04:08;13.40;99.90
31695;DHT22;18289;51.330;4.946;2024-02-16T14:06:34;13.50;99.90
31695;DHT22;18289;51.330;4.946;2024-02-16T14:09:01;13.70;99.90
31695;DHT22;18289;51.330;4.946;2024-02-16T14:11:36;13.50;99.90
31695;DHT22;18289;51.330;4.946;2024-02-16T14:14:02;13.70;99.90
31695;DHT22;18289;51.330;4.946;2024-02-16T14:16:28;13.60;99.90
31695;DHT22;18289;51.330;4.946;2024-02-16T14:21:22;13.70;99.90
31695;DHT22;18289;51.330;4.946;2024-02-16T14:23:47;13.70;99.90
31695;DHT22;18289;51.330;4.946;2024-02-16T14:26:13;13.70;99.90
31695;DHT22;18289;51.330;4.946;2024-02-16T14:28:39;13.70;99.90
31695;DHT22;18289;51.330;4.946;2024-02-16T14:31:04;13.60;99.90
31695;DHT22;18289;51.330;4.946;2024-02-16T14:33:32;13.70;99.90
31695;DHT22;18289;51.330;4.946;2024-02-16T14:35:57;13.90;99.90
31695;DHT22;18289;51.330;4.946;2024-02-16T14:38:23;14.10;99.90
31695;DHT22;18289;51.330;4.946;2024-02-16T14:40:49;14.10;99.90
31695;DHT22;18289;51.330;4.946;2024-02-16T14:43:15;14.10;99.90
31695;DHT22;18289;51.330;4.946;2024-02-16T14:45:41;13.90;99.90
31695;DHT22;18289;51.330;4.946;2024-02-16T14:50:41;13.90;99.90
31695;DHT22;18289;51.330;4.946;2024-02-16T14:53:10;14.00;99.90
31695;DHT22;18289;51.330;4.946;2024-02-16T14:55:35;14.00;99.90
31695;DHT22;18289;51.330;4.946;2024-02-16T14:58:01;13.80;99.90
31695;DHT22;18289;51.330;4.946;2024-02-16T15:00:27;13.70;99.90
31695;DHT22;18289;51.330;4.946;2024-02-16T15:02:53;13.80;99.90
31695;DHT22;18289;51.330;4.946;2024-02-16T15:05:19;14.00;99.90
31695;DHT22;18289;51.330;4.946;2024-02-16T15:07:46;13.90;99.90
31695;DHT22;18289;51.330;4.946;2024-02-16T15:10:11;13.80;99.90
31695;DHT22;18289;51.330;4.946;2024-02-16T15:12:38;14.00;99.90
31695;DHT22;18289;51.330;4.946;2024-02-16T15:15:06;13.90;99.90
31695;DHT22;18289;51.330;4.946;2024-02-16T15:17:34;13.90;99.90
31695;DHT22;18289;51.330;4.946;2024-02-16T15:20:00;14.20;99.90
31695;DHT22;18289;51.330;4.946;2024-02-16T15:22:29;14.60;99.90
31695;DHT22;18289;51.330;4.946;2024-02-16T15:24:54;14.70;99.90
31695;DHT22;18289;51.330;4.946;2024-02-16T15:27:20;14.60;99.90
31695;DHT22;18289;51.330;4.946;2024-02-16T15:29:46;14.50;99.90
31695;DHT22;18289;51.330;4.946;2024-02-16T15:32:11;14.40;99.90
31695;DHT22;18289;51.330;4.946;2024-02-16T15:34:37;14.30;99.90
31695;DHT22;18289;51.330;4.946;2024-02-16T15:37:03;14.30;99.90
31695;DHT22;18289;51.330;4.946;2024-02-16T15:39:29;14.20;99.90
31695;DHT22;18289;51.330;4.946;2024-02-16T15:41:54;14.20;99.90
31695;DHT22;18289;51.330;4.946;2024-02-16T15:44:20;14.10;99.90
31695;DHT22;18289;51.330;4.946;2024-02-16T15:46:46;14.10;99.90
31695;DHT22;18289;51.330;4.946;2024-02-16T15:49:12;14.10;99.90
31695;DHT22;18289;51.330;4.946;2024-02-16T15:51:37;14.00;99.90
31695;DHT22;18289;51.330;4.946;2024-02-16T15:54:03;13.90;99.90
31695;DHT22;18289;51.330;4.946;2024-02-16T15:56:29;13.90;99.90